sensor_id;sensor_type;location;lat;lon;timestamp;temperature;humidity
79244;SHT31;68672;42.676;23.356;2023-06-26T00:00:31;21.78;70.15
79244;SHT31;68672;42.676;23.356;2023-06-26T00:02:57;21.75;70.19
79244;SHT31;68672;42.676;23.356;2023-06-26T00:05:23;21.77;70.17
79244;SHT31;68672;42.676;23.356;2023-06-26T00:07:48;21.78;70.21
79244;SHT31;68672;42.676;23.356;2023-06-26T00:10:17;21.79;70.05
79244;SHT31;68672;42.676;23.356;2023-06-26T00:12:45;21.74;70.09
79244;SHT31;68672;42.676;23.356;2023-06-26T00:15:10;21.74;70.21
79244;SHT31;68672;42.676;23.356;2023-06-26T00:17:37;21.72;70.26
79244;SHT31;68672;42.676;23.356;2023-06-26T00:20:06;21.69;70.38
79244;SHT31;68672;42.676;23.356;2023-06-26T00:22:32;21.72;70.37
79244;SHT31;68672;42.676;23.356;2023-06-26T00:24:57;21.72;70.43
79244;SHT31;68672;42.676;23.356;2023-06-26T00:27:22;21.71;70.37
79244;SHT31;68672;42.676;23.356;2023-06-26T00:29:48;21.69;70.42
79244;SHT31;68672;42.676;23.356;2023-06-26T00:32:13;21.68;70.40
79244;SHT31;68672;42.676;23.356;2023-06-26T00:34:39;21.66;70.47
79244;SHT31;68672;42.676;23.356;2023-06-26T00:37:04;21.62;70.57
79244;SHT31;68672;42.676;23.356;2023-06-26T00:39:38;21.61;70.75
79244;SHT31;68672;42.676;23.356;2023-06-26T00:42:04;21.59;70.68
79244;SHT31;68672;42.676;23.356;2023-06-26T00:44:29;21.57;70.80
79244;SHT31;68672;42.676;23.356;2023-06-26T00:46:55;21.55;70.80
79244;SHT31;68672;42.676;23.356;2023-06-26T00:49:20;21.51;70.89
79244;SHT31;68672;42.676;23.356;2023-06-26T00:51:46;21.54;70.89
79244;SHT31;68672;42.676;23.356;2023-06-26T00:54:12;21.50;70.95
79244;SHT31;68672;42.676;23.356;2023-06-26T00:56:39;21.53;70.97
79244;SHT31;68672;42.676;23.356;2023-06-26T00:59:05;21.51;70.99
79244;SHT31;68672;42.676;23.356;2023-06-26T01:01:30;21.48;71.10
79244;SHT31;68672;42.676;23.356;2023-06-26T01:03:58;21.45;71.09
79244;SHT31;68672;42.676;23.356;2023-06-26T01:06:25;21.44;71.06
79244;SHT31;68672;42.676;23.356;2023-06-26T01:08:52;21.41;71.13
79244;SHT31;68672;42.676;23.356;2023-06-26T01:11:18;21.44;71.13
79244;SHT31;68672;42.676;23.356;2023-06-26T01:13:47;21.43;71.06
79244;SHT31;68672;42.676;23.356;2023-06-26T01:16:14;21.34;71.19
79244;SHT31;68672;42.676;23.356;2023-06-26T01:18:41;21.37;71.25
79244;SHT31;68672;42.676;23.356;2023-06-26T01:21:09;21.35;71.24
79244;SHT31;68672;42.676;23.356;2023-06-26T01:23:58;21.35;71.26
79244;SHT31;68672;42.676;23.356;2023-06-26T01:26:30;21.37;71.34
79244;SHT31;68672;42.676;23.356;2023-06-26T01:29:01;21.31;71.39
79244;SHT31;68672;42.676;23.356;2023-06-26T01:31:28;21.28;71.50
79244;SHT31;68672;42.676;23.356;2023-06-26T01:33:57;21.30;71.50
79244;SHT31;68672;42.676;23.356;2023-06-26T01:36:24;21.23;71.49
79244;SHT31;68672;42.676;23.356;2023-06-26T01:38:49;21.20;71.57
79244;SHT31;68672;42.676;23.356;2023-06-26T01:41:17;21.14;71.61
79244;SHT31;68672;42.676;23.356;2023-06-26T01:44:10;21.10;71.71
79244;SHT31;68672;42.676;23.356;2023-06-26T01:46:47;21.11;71.84
79244;SHT31;68672;42.676;23.356;2023-06-26T01:49:21;21.07;71.96
79244;SHT31;68672;42.676;23.356;2023-06-26T01:51:58;21.06;71.84
79244;SHT31;68672;42.676;23.356;2023-06-26T01:54:30;21.03;71.89
79244;SHT31;68672;42.676;23.356;2023-06-26T01:57:02;21.04;71.94
79244;SHT31;68672;42.676;23.356;2023-06-26T01:59:30;21.02;71.93
79244;SHT31;68672;42.676;23.356;2023-06-26T02:01:56;21.02;71.90
79244;SHT31;68672;42.676;23.356;2023-06-26T02:04:25;21.02;71.86
79244;SHT31;68672;42.676;23.356;2023-06-26T02:06:50;20.99;71.82
79244;SHT31;68672;42.676;23.356;2023-06-26T02:09:16;20.97;71.76
79244;SHT31;68672;42.676;23.356;2023-06-26T02:11:41;20.94;71.77
79244;SHT31;68672;42.676;23.356;2023-06-26T02:14:07;20.96;71.82
79244;SHT31;68672;42.676;23.356;2023-06-26T02:16:34;20.97;71.83
79244;SHT31;68672;42.676;23.356;2023-06-26T02:18:59;20.96;71.75
79244;SHT31;68672;42.676;23.356;2023-06-26T02:21:25;20.93;71.69
79244;SHT31;68672;42.676;23.356;2023-06-26T02:23:53;20.89;71.82
79244;SHT31;68672;42.676;23.356;2023-06-26T02:26:18;20.89;71.73
79244;SHT31;68672;42.676;23.356;2023-06-26T02:28:44;20.87;71.83
79244;SHT31;68672;42.676;23.356;2023-06-26T02:31:12;20.85;71.97
79244;SHT31;68672;42.676;23.356;2023-06-26T02:33:38;20.85;71.89
79244;SHT31;68672;42.676;23.356;2023-06-26T02:36:04;20.89;71.91
79244;SHT31;68672;42.676;23.356;2023-06-26T02:38:30;20.90;71.91
79244;SHT31;68672;42.676;23.356;2023-06-26T02:40:58;20.92;71.93
79244;SHT31;68672;42.676;23.356;2023-06-26T02:43:23;20.93;71.69
79244;SHT31;68672;42.676;23.356;2023-06-26T02:45:49;20.92;71.71
79244;SHT31;68672;42.676;23.356;2023-06-26T02:48:14;20.90;71.70
79244;SHT31;68672;42.676;23.356;2023-06-26T02:50:40;20.90;71.77
79244;SHT31;68672;42.676;23.356;2023-06-26T02:53:08;20.86;71.92
79244;SHT31;68672;42.676;23.356;2023-06-26T02:55:34;20.86;71.95
79244;SHT31;68672;42.676;23.356;2023-06-26T02:58:00;20.86;71.91
79244;SHT31;68672;42.676;23.356;2023-06-26T03:00:25;20.83;72.10
79244;SHT31;68672;42.676;23.356;2023-06-26T03:02:50;20.82;71.98
79244;SHT31;68672;42.676;23.356;2023-06-26T03:05:16;20.82;71.91
79244;SHT31;68672;42.676;23.356;2023-06-26T03:07:41;20.75;72.02
79244;SHT31;68672;42.676;23.356;2023-06-26T03:10:07;20.73;72.06
79244;SHT31;68672;42.676;23.356;2023-06-26T03:12:32;20.73;72.05
79244;SHT31;68672;42.676;23.356;2023-06-26T03:14:58;20.68;72.10
79244;SHT31;68672;42.676;23.356;2023-06-26T03:17:23;20.69;72.12
79244;SHT31;68672;42.676;23.356;2023-06-26T03:19:49;20.71;72.06
79244;SHT31;68672;42.676;23.356;2023-06-26T03:22:14;20.66;72.00
79244;SHT31;68672;42.676;23.356;2023-06-26T03:24:39;20.68;72.14
79244;SHT31;68672;42.676;23.356;2023-06-26T03:27:05;20.66;72.05
79244;SHT31;68672;42.676;23.356;2023-06-26T03:29:31;20.65;71.99
79244;SHT31;68672;42.676;23.356;2023-06-26T03:31:56;20.65;72.01
79244;SHT31;68672;42.676;23.356;2023-06-26T03:34:21;20.65;72.09
79244;SHT31;68672;42.676;23.356;2023-06-26T03:36:47;20.66;72.10
79244;SHT31;68672;42.676;23.356;2023-06-26T03:39:12;20.66;72.02
79244;SHT31;68672;42.676;23.356;2023-06-26T03:41:38;20.65;71.99
79244;SHT31;68672;42.676;23.356;2023-06-26T03:44:03;20.62;72.06
79244;SHT31;68672;42.676;23.356;2023-06-26T03:46:29;20.62;72.19
79244;SHT31;68672;42.676;23.356;2023-06-26T03:48:54;20.61;72.12
79244;SHT31;68672;42.676;23.356;2023-06-26T03:51:20;20.62;72.10
79244;SHT31;68672;42.676;23.356;2023-06-26T03:53:48;20.62;72.15
79244;SHT31;68672;42.676;23.356;2023-06-26T03:56:19;20.59;72.15
79244;SHT31;68672;42.676;23.356;2023-06-26T03:58:44;20.61;72.20
79244;SHT31;68672;42.676;23.356;2023-06-26T04:01:10;20.65;72.08
79244;SHT31;68672;42.676;23.356;2023-06-26T04:03:38;20.66;71.99
79244;SHT31;68672;42.676;23.356;2023-06-26T04:06:03;20.68;71.95
79244;SHT31;68672;42.676;23.356;2023-06-26T04:08:28;20.71;71.98
79244;SHT31;68672;42.676;23.356;2023-06-26T04:10:54;20.76;71.86
79244;SHT31;68672;42.676;23.356;2023-06-26T04:13:28;20.82;71.81
79244;SHT31;68672;42.676;23.356;2023-06-26T04:15:53;20.85;71.54
79244;SHT31;68672;42.676;23.356;2023-06-26T04:18:19;20.90;71.55
79244;SHT31;68672;42.676;23.356;2023-06-26T04:21:05;20.94;71.30
79244;SHT31;68672;42.676;23.356;2023-06-26T04:23:34;21.03;71.29
79244;SHT31;68672;42.676;23.356;2023-06-26T04:26:00;21.06;71.00
79244;SHT31;68672;42.676;23.356;2023-06-26T04:28:25;21.11;70.77
79244;SHT31;68672;42.676;23.356;2023-06-26T04:30:51;21.14;70.45
79244;SHT31;68672;42.676;23.356;2023-06-26T04:33:19;21.17;70.47
79244;SHT31;68672;42.676;23.356;2023-06-26T04:35:44;21.19;70.18
79244;SHT31;68672;42.676;23.356;2023-06-26T04:38:14;21.19;69.93
79244;SHT31;68672;42.676;23.356;2023-06-26T04:40:39;21.19;69.88
79244;SHT31;68672;42.676;23.356;2023-06-26T04:43:04;21.20;69.79
79244;SHT31;68672;42.676;23.356;2023-06-26T04:45:30;21.22;69.75
79244;SHT31;68672;42.676;23.356;2023-06-26T04:47:58;21.16;69.82
79244;SHT31;68672;42.676;23.356;2023-06-26T04:50:25;21.17;69.66
79244;SHT31;68672;42.676;23.356;2023-06-26T04:52:50;21.20;69.89
79244;SHT31;68672;42.676;23.356;2023-06-26T04:55:15;21.20;70.18
79244;SHT31;68672;42.676;23.356;2023-06-26T04:57:41;21.20;70.03
79244;SHT31;68672;42.676;23.356;2023-06-26T05:00:06;21.19;70.21
79244;SHT31;68672;42.676;23.356;2023-06-26T05:02:36;21.23;70.28
79244;SHT31;68672;42.676;23.356;2023-06-26T05:05:01;21.23;70.40
79244;SHT31;68672;42.676;23.356;2023-06-26T05:07:27;21.33;70.36
79244;SHT31;68672;42.676;23.356;2023-06-26T05:09:52;21.40;70.27
79244;SHT31;68672;42.676;23.356;2023-06-26T05:12:26;21.47;70.20
79244;SHT31;68672;42.676;23.356;2023-06-26T05:14:51;21.48;70.07
79244;SHT31;68672;42.676;23.356;2023-06-26T05:17:17;21.51;69.97
79244;SHT31;68672;42.676;23.356;2023-06-26T05:19:42;21.53;69.73
79244;SHT31;68672;42.676;23.356;2023-06-26T05:22:08;21.51;69.72
79244;SHT31;68672;42.676;23.356;2023-06-26T05:24:38;21.51;69.34
79244;SHT31;68672;42.676;23.356;2023-06-26T05:27:04;21.54;69.36
79244;SHT31;68672;42.676;23.356;2023-06-26T05:29:31;21.59;69.31
79244;SHT31;68672;42.676;23.356;2023-06-26T05:31:56;21.64;69.22
79244;SHT31;68672;42.676;23.356;2023-06-26T05:34:26;21.65;69.18
79244;SHT31;68672;42.676;23.356;2023-06-26T05:37:00;21.71;69.10
79244;SHT31;68672;42.676;23.356;2023-06-26T05:39:27;21.74;68.89
79244;SHT31;68672;42.676;23.356;2023-06-26T05:41:52;21.78;68.42
79244;SHT31;68672;42.676;23.356;2023-06-26T05:44:18;21.84;68.22
79244;SHT31;68672;42.676;23.356;2023-06-26T05:46:45;21.89;68.33
79244;SHT31;68672;42.676;23.356;2023-06-26T05:49:11;21.93;68.28
79244;SHT31;68672;42.676;23.356;2023-06-26T05:51:36;21.96;67.95
79244;SHT31;68672;42.676;23.356;2023-06-26T05:54:02;21.98;67.75
79244;SHT31;68672;42.676;23.356;2023-06-26T05:56:28;22.02;67.82
79244;SHT31;68672;42.676;23.356;2023-06-26T05:58:54;22.05;68.07
79244;SHT31;68672;42.676;23.356;2023-06-26T06:01:20;22.05;67.72
79244;SHT31;68672;42.676;23.356;2023-06-26T06:03:45;22.05;67.39
79244;SHT31;68672;42.676;23.356;2023-06-26T06:06:11;22.03;67.45
79244;SHT31;68672;42.676;23.356;2023-06-26T06:08:38;22.03;67.32
79244;SHT31;68672;42.676;23.356;2023-06-26T06:11:03;22.05;67.53
79244;SHT31;68672;42.676;23.356;2023-06-26T06:13:29;22.01;66.98
79244;SHT31;68672;42.676;23.356;2023-06-26T06:15:54;22.08;67.05
79244;SHT31;68672;42.676;23.356;2023-06-26T06:18:20;22.09;67.06
79244;SHT31;68672;42.676;23.356;2023-06-26T06:20:46;22.10;66.93
79244;SHT31;68672;42.676;23.356;2023-06-26T06:23:12;22.19;66.86
79244;SHT31;68672;42.676;23.356;2023-06-26T06:25:37;22.19;66.71
79244;SHT31;68672;42.676;23.356;2023-06-26T06:28:04;22.26;66.73
79244;SHT31;68672;42.676;23.356;2023-06-26T06:30:29;22.29;66.81
79244;SHT31;68672;42.676;23.356;2023-06-26T06:32:55;22.36;66.62
79244;SHT31;68672;42.676;23.356;2023-06-26T06:35:20;22.49;66.22
79244;SHT31;68672;42.676;23.356;2023-06-26T06:37:46;22.59;65.96
79244;SHT31;68672;42.676;23.356;2023-06-26T06:40:11;22.67;65.91
79244;SHT31;68672;42.676;23.356;2023-06-26T06:42:37;22.78;66.40
79244;SHT31;68672;42.676;23.356;2023-06-26T06:45:05;22.84;66.07
79244;SHT31;68672;42.676;23.356;2023-06-26T06:47:34;22.97;65.75
79244;SHT31;68672;42.676;23.356;2023-06-26T06:50:00;23.02;65.22
79244;SHT31;68672;42.676;23.356;2023-06-26T06:52:37;23.10;64.76
79244;SHT31;68672;42.676;23.356;2023-06-26T06:55:04;23.16;64.73
79244;SHT31;68672;42.676;23.356;2023-06-26T06:57:37;23.21;64.14
79244;SHT31;68672;42.676;23.356;2023-06-26T07:00:08;23.23;63.37
79244;SHT31;68672;42.676;23.356;2023-06-26T07:02:38;23.25;62.63
79244;SHT31;68672;42.676;23.356;2023-06-26T07:05:04;23.28;62.85
79244;SHT31;68672;42.676;23.356;2023-06-26T07:07:31;23.32;62.67
79244;SHT31;68672;42.676;23.356;2023-06-26T07:10:01;23.45;61.81
79244;SHT31;68672;42.676;23.356;2023-06-26T07:12:27;23.55;62.25
79244;SHT31;68672;42.676;23.356;2023-06-26T07:14:54;23.65;61.75
79244;SHT31;68672;42.676;23.356;2023-06-26T07:17:20;23.66;61.17
79244;SHT31;68672;42.676;23.356;2023-06-26T07:19:46;23.69;60.92
79244;SHT31;68672;42.676;23.356;2023-06-26T07:22:14;23.72;61.28
79244;SHT31;68672;42.676;23.356;2023-06-26T07:24:45;23.72;61.04
79244;SHT31;68672;42.676;23.356;2023-06-26T07:27:11;23.77;60.93
79244;SHT31;68672;42.676;23.356;2023-06-26T07:29:36;23.80;60.56
79244;SHT31;68672;42.676;23.356;2023-06-26T07:32:02;23.80;60.76
79244;SHT31;68672;42.676;23.356;2023-06-26T07:34:27;23.89;60.74
79244;SHT31;68672;42.676;23.356;2023-06-26T07:36:53;23.94;60.01
79244;SHT31;68672;42.676;23.356;2023-06-26T07:39:18;24.03;59.42
79244;SHT31;68672;42.676;23.356;2023-06-26T07:41:44;24.10;60.09
79244;SHT31;68672;42.676;23.356;2023-06-26T07:44:09;24.13;59.57
79244;SHT31;68672;42.676;23.356;2023-06-26T07:46:35;24.11;59.22
79244;SHT31;68672;42.676;23.356;2023-06-26T07:49:00;24.07;58.57
79244;SHT31;68672;42.676;23.356;2023-06-26T07:51:25;24.07;58.48
79244;SHT31;68672;42.676;23.356;2023-06-26T07:53:55;24.18;58.40
79244;SHT31;68672;42.676;23.356;2023-06-26T07:56:21;24.30;58.21
79244;SHT31;68672;42.676;23.356;2023-06-26T07:58:46;24.38;57.78
79244;SHT31;68672;42.676;23.356;2023-06-26T08:01:11;24.40;57.08
79244;SHT31;68672;42.676;23.356;2023-06-26T08:03:37;24.48;56.12
79244;SHT31;68672;42.676;23.356;2023-06-26T08:06:05;24.54;56.15
79244;SHT31;68672;42.676;23.356;2023-06-26T08:08:34;24.58;56.87
79244;SHT31;68672;42.676;23.356;2023-06-26T08:10:59;24.55;56.13
79244;SHT31;68672;42.676;23.356;2023-06-26T08:13:25;24.65;55.55
79244;SHT31;68672;42.676;23.356;2023-06-26T08:15:50;24.83;55.56
79244;SHT31;68672;42.676;23.356;2023-06-26T08:18:16;25.06;54.72
79244;SHT31;68672;42.676;23.356;2023-06-26T08:20:42;25.18;53.78
79244;SHT31;68672;42.676;23.356;2023-06-26T08:23:07;25.27;53.73
79244;SHT31;68672;42.676;23.356;2023-06-26T08:25:33;25.18;54.65
79244;SHT31;68672;42.676;23.356;2023-06-26T08:28:01;25.13;55.14
79244;SHT31;68672;42.676;23.356;2023-06-26T08:30:26;25.08;55.37
79244;SHT31;68672;42.676;23.356;2023-06-26T08:32:56;25.20;55.16
79244;SHT31;68672;42.676;23.356;2023-06-26T08:35:21;25.23;54.15
79244;SHT31;68672;42.676;23.356;2023-06-26T08:37:47;25.18;53.68
79244;SHT31;68672;42.676;23.356;2023-06-26T08:40:16;25.13;54.06
79244;SHT31;68672;42.676;23.356;2023-06-26T08:42:45;25.06;54.39
79244;SHT31;68672;42.676;23.356;2023-06-26T08:45:11;25.02;54.10
79244;SHT31;68672;42.676;23.356;2023-06-26T08:47:41;25.13;54.81
79244;SHT31;68672;42.676;23.356;2023-06-26T08:50:10;25.23;54.98
79244;SHT31;68672;42.676;23.356;2023-06-26T08:52:39;25.39;55.15
79244;SHT31;68672;42.676;23.356;2023-06-26T08:55:09;25.43;54.82
79244;SHT31;68672;42.676;23.356;2023-06-26T08:57:36;25.44;53.44
79244;SHT31;68672;42.676;23.356;2023-06-26T09:00:03;25.48;53.92
79244;SHT31;68672;42.676;23.356;2023-06-26T09:02:28;25.51;54.75
79244;SHT31;68672;42.676;23.356;2023-06-26T09:04:54;25.53;54.19
79244;SHT31;68672;42.676;23.356;2023-06-26T09:07:20;25.54;53.69
79244;SHT31;68672;42.676;23.356;2023-06-26T09:09:45;25.60;53.96
79244;SHT31;68672;42.676;23.356;2023-06-26T09:12:11;25.71;54.80
79244;SHT31;68672;42.676;23.356;2023-06-26T09:14:38;25.74;53.87
79244;SHT31;68672;42.676;23.356;2023-06-26T09:17:04;25.77;53.08
79244;SHT31;68672;42.676;23.356;2023-06-26T09:19:29;25.88;53.16
79244;SHT31;68672;42.676;23.356;2023-06-26T09:21:57;25.88;53.19
79244;SHT31;68672;42.676;23.356;2023-06-26T09:24:23;25.91;53.09
79244;SHT31;68672;42.676;23.356;2023-06-26T09:26:49;25.89;52.22
79244;SHT31;68672;42.676;23.356;2023-06-26T09:29:17;25.82;52.08
79244;SHT31;68672;42.676;23.356;2023-06-26T09:31:46;25.89;52.20
79244;SHT31;68672;42.676;23.356;2023-06-26T09:34:11;26.02;52.83
79244;SHT31;68672;42.676;23.356;2023-06-26T09:36:37;25.94;52.91
79244;SHT31;68672;42.676;23.356;2023-06-26T09:39:04;25.85;51.73
79244;SHT31;68672;42.676;23.356;2023-06-26T09:41:34;25.77;51.69
79244;SHT31;68672;42.676;23.356;2023-06-26T09:44:02;25.64;51.80
79244;SHT31;68672;42.676;23.356;2023-06-26T09:46:29;25.56;52.29
79244;SHT31;68672;42.676;23.356;2023-06-26T09:49:06;25.47;52.49
79244;SHT31;68672;42.676;23.356;2023-06-26T09:51:35;25.63;52.01
79244;SHT31;68672;42.676;23.356;2023-06-26T09:54:01;25.60;51.01
79244;SHT31;68672;42.676;23.356;2023-06-26T09:56:28;25.58;50.70
79244;SHT31;68672;42.676;23.356;2023-06-26T09:58:57;25.48;50.70
79244;SHT31;68672;42.676;23.356;2023-06-26T10:01:24;25.37;50.05
79244;SHT31;68672;42.676;23.356;2023-06-26T10:03:50;25.30;50.55
79244;SHT31;68672;42.676;23.356;2023-06-26T10:06:19;25.26;50.71
79244;SHT31;68672;42.676;23.356;2023-06-26T10:08:45;25.24;51.06
79244;SHT31;68672;42.676;23.356;2023-06-26T10:11:15;25.22;50.78
79244;SHT31;68672;42.676;23.356;2023-06-26T10:13:42;25.18;50.81
79244;SHT31;68672;42.676;23.356;2023-06-26T10:16:12;25.15;50.65
79244;SHT31;68672;42.676;23.356;2023-06-26T10:18:38;25.10;50.54
79244;SHT31;68672;42.676;23.356;2023-06-26T10:21:05;25.08;50.79
79244;SHT31;68672;42.676;23.356;2023-06-26T10:23:31;25.06;51.23
79244;SHT31;68672;42.676;23.356;2023-06-26T10:26:00;25.03;51.23
79244;SHT31;68672;42.676;23.356;2023-06-26T10:28:27;25.02;50.43
79244;SHT31;68672;42.676;23.356;2023-06-26T10:30:56;25.03;50.75
79244;SHT31;68672;42.676;23.356;2023-06-26T10:33:22;24.98;51.04
79244;SHT31;68672;42.676;23.356;2023-06-26T10:35:48;25.00;50.35
79244;SHT31;68672;42.676;23.356;2023-06-26T10:38:14;24.98;50.44
79244;SHT31;68672;42.676;23.356;2023-06-26T10:40:49;25.00;50.45
79244;SHT31;68672;42.676;23.356;2023-06-26T10:43:15;24.95;50.70
79244;SHT31;68672;42.676;23.356;2023-06-26T10:45:46;24.92;50.05
79244;SHT31;68672;42.676;23.356;2023-06-26T10:48:15;24.89;49.32
79244;SHT31;68672;42.676;23.356;2023-06-26T10:50:46;24.85;49.29
79244;SHT31;68672;42.676;23.356;2023-06-26T10:58:52;24.79;50.86
79244;SHT31;68672;42.676;23.356;2023-06-26T11:01:22;24.83;51.94
79244;SHT31;68672;42.676;23.356;2023-06-26T11:06:23;24.85;51.13
79244;SHT31;68672;42.676;23.356;2023-06-26T11:08:53;24.92;51.62
79244;SHT31;68672;42.676;23.356;2023-06-26T11:11:22;24.92;50.13
79244;SHT31;68672;42.676;23.356;2023-06-26T11:14:08;24.98;49.76
79244;SHT31;68672;42.676;23.356;2023-06-26T11:16:34;25.08;50.04
79244;SHT31;68672;42.676;23.356;2023-06-26T11:19:00;25.23;50.43
79244;SHT31;68672;42.676;23.356;2023-06-26T11:21:26;25.34;50.48
79244;SHT31;68672;42.676;23.356;2023-06-26T11:23:52;25.46;50.30
79244;SHT31;68672;42.676;23.356;2023-06-26T11:26:20;25.67;49.03
79244;SHT31;68672;42.676;23.356;2023-06-26T11:28:49;25.94;48.24
79244;SHT31;68672;42.676;23.356;2023-06-26T11:31:29;26.09;48.64
79244;SHT31;68672;42.676;23.356;2023-06-26T11:33:56;26.42;48.91
79244;SHT31;68672;42.676;23.356;2023-06-26T11:36:26;26.47;47.82
79244;SHT31;68672;42.676;23.356;2023-06-26T11:39:01;26.46;48.09
79244;SHT31;68672;42.676;23.356;2023-06-26T11:41:30;26.43;47.83
79244;SHT31;68672;42.676;23.356;2023-06-26T11:44:00;26.35;47.21
79244;SHT31;68672;42.676;23.356;2023-06-26T11:46:25;26.25;46.56
79244;SHT31;68672;42.676;23.356;2023-06-26T11:48:50;26.21;47.00
79244;SHT31;68672;42.676;23.356;2023-06-26T11:51:19;26.14;47.62
79244;SHT31;68672;42.676;23.356;2023-06-26T11:53:46;26.09;47.53
79244;SHT31;68672;42.676;23.356;2023-06-26T11:56:13;26.12;48.32
79244;SHT31;68672;42.676;23.356;2023-06-26T11:58:59;26.21;48.77
79244;SHT31;68672;42.676;23.356;2023-06-26T12:01:35;26.32;48.49
79244;SHT31;68672;42.676;23.356;2023-06-26T12:04:03;26.47;47.50
79244;SHT31;68672;42.676;23.356;2023-06-26T12:06:31;26.60;47.12
79244;SHT31;68672;42.676;23.356;2023-06-26T12:08:59;26.87;47.10
79244;SHT31;68672;42.676;23.356;2023-06-26T12:11:26;26.97;46.26
79244;SHT31;68672;42.676;23.356;2023-06-26T12:13:53;27.01;45.57
79244;SHT31;68672;42.676;23.356;2023-06-26T12:16:19;27.10;44.78
79244;SHT31;68672;42.676;23.356;2023-06-26T12:18:45;27.04;45.10
79244;SHT31;68672;42.676;23.356;2023-06-26T12:24:14;27.35;45.81
79244;SHT31;68672;42.676;23.356;2023-06-26T12:26:44;27.54;45.76
79244;SHT31;68672;42.676;23.356;2023-06-26T12:29:10;27.78;44.59
79244;SHT31;68672;42.676;23.356;2023-06-26T12:31:42;27.89;44.57
79244;SHT31;68672;42.676;23.356;2023-06-26T12:34:13;28.05;44.50
79244;SHT31;68672;42.676;23.356;2023-06-26T12:36:44;28.23;43.86
79244;SHT31;68672;42.676;23.356;2023-06-26T12:39:10;28.43;43.04
79244;SHT31;68672;42.676;23.356;2023-06-26T12:41:51;28.39;41.85
79244;SHT31;68672;42.676;23.356;2023-06-26T12:44:22;28.17;42.57
79244;SHT31;68672;42.676;23.356;2023-06-26T12:46:49;28.00;42.90
79244;SHT31;68672;42.676;23.356;2023-06-26T12:49:16;27.83;43.13
79244;SHT31;68672;42.676;23.356;2023-06-26T12:51:41;27.66;43.70
79244;SHT31;68672;42.676;23.356;2023-06-26T12:54:08;27.52;44.74
79244;SHT31;68672;42.676;23.356;2023-06-26T12:56:33;27.48;45.25
79244;SHT31;68672;42.676;23.356;2023-06-26T12:58:58;27.52;45.33
79244;SHT31;68672;42.676;23.356;2023-06-26T13:01:27;27.44;45.10
79244;SHT31;68672;42.676;23.356;2023-06-26T13:03:53;27.33;45.66
79244;SHT31;68672;42.676;23.356;2023-06-26T13:06:19;27.27;45.55
79244;SHT31;68672;42.676;23.356;2023-06-26T13:08:44;27.17;45.64
79244;SHT31;68672;42.676;23.356;2023-06-26T13:11:10;27.11;45.48
79244;SHT31;68672;42.676;23.356;2023-06-26T13:13:35;27.11;46.05
79244;SHT31;68672;42.676;23.356;2023-06-26T13:16:01;27.03;45.85
79244;SHT31;68672;42.676;23.356;2023-06-26T13:18:30;27.03;46.53
79244;SHT31;68672;42.676;23.356;2023-06-26T13:20:55;27.46;44.99
79244;SHT31;68672;42.676;23.356;2023-06-26T13:23:20;28.12;44.56
79244;SHT31;68672;42.676;23.356;2023-06-26T13:25:48;28.67;43.76
79244;SHT31;68672;42.676;23.356;2023-06-26T13:28:14;28.63;44.03
79244;SHT31;68672;42.676;23.356;2023-06-26T13:30:39;28.82;43.77
79244;SHT31;68672;42.676;23.356;2023-06-26T13:33:05;29.45;43.04
79244;SHT31;68672;42.676;23.356;2023-06-26T13:35:31;30.69;40.28
79244;SHT31;68672;42.676;23.356;2023-06-26T13:37:57;31.38;38.61
79244;SHT31;68672;42.676;23.356;2023-06-26T13:40:22;31.35;37.97
79244;SHT31;68672;42.676;23.356;2023-06-26T13:42:48;31.07;38.90
79244;SHT31;68672;42.676;23.356;2023-06-26T13:45:13;30.62;39.79
79244;SHT31;68672;42.676;23.356;2023-06-26T13:47:39;30.33;40.53
79244;SHT31;68672;42.676;23.356;2023-06-26T13:50:09;30.07;41.11
79244;SHT31;68672;42.676;23.356;2023-06-26T13:52:38;29.85;43.02
79244;SHT31;68672;42.676;23.356;2023-06-26T13:55:03;29.72;42.36
79244;SHT31;68672;42.676;23.356;2023-06-26T13:57:32;29.57;42.47
79244;SHT31;68672;42.676;23.356;2023-06-26T13:59:58;29.32;42.93
79244;SHT31;68672;42.676;23.356;2023-06-26T14:02:23;29.08;43.32
79244;SHT31;68672;42.676;23.356;2023-06-26T14:04:51;28.81;44.51
79244;SHT31;68672;42.676;23.356;2023-06-26T14:07:16;28.61;45.22
79244;SHT31;68672;42.676;23.356;2023-06-26T14:09:42;28.36;45.48
79244;SHT31;68672;42.676;23.356;2023-06-26T14:12:08;28.20;45.88
79244;SHT31;68672;42.676;23.356;2023-06-26T14:14:36;28.13;46.08
79244;SHT31;68672;42.676;23.356;2023-06-26T14:17:01;28.12;44.32
79244;SHT31;68672;42.676;23.356;2023-06-26T14:19:30;27.99;44.61
79244;SHT31;68672;42.676;23.356;2023-06-26T14:21:55;27.90;44.15
79244;SHT31;68672;42.676;23.356;2023-06-26T14:24:21;27.79;44.42
79244;SHT31;68672;42.676;23.356;2023-06-26T14:26:46;27.66;44.86
79244;SHT31;68672;42.676;23.356;2023-06-26T14:29:11;27.51;45.14
79244;SHT31;68672;42.676;23.356;2023-06-26T14:31:40;27.37;45.35
79244;SHT31;68672;42.676;23.356;2023-06-26T14:34:06;27.23;46.17
79244;SHT31;68672;42.676;23.356;2023-06-26T14:36:35;27.10;46.74
79244;SHT31;68672;42.676;23.356;2023-06-26T14:39:00;26.96;48.58
79244;SHT31;68672;42.676;23.356;2023-06-26T14:41:26;26.79;49.95
79244;SHT31;68672;42.676;23.356;2023-06-26T14:43:51;26.61;51.87
79244;SHT31;68672;42.676;23.356;2023-06-26T14:46:17;26.42;53.83
79244;SHT31;68672;42.676;23.356;2023-06-26T14:48:43;26.24;54.62
79244;SHT31;68672;42.676;23.356;2023-06-26T14:51:08;26.12;55.41
79244;SHT31;68672;42.676;23.356;2023-06-26T14:53:34;25.94;55.96
79244;SHT31;68672;42.676;23.356;2023-06-26T14:55:59;25.82;56.16
79244;SHT31;68672;42.676;23.356;2023-06-26T14:58:25;25.67;56.81
79244;SHT31;68672;42.676;23.356;2023-06-26T15:00:50;25.54;57.34
79244;SHT31;68672;42.676;23.356;2023-06-26T15:03:15;25.41;57.77
79244;SHT31;68672;42.676;23.356;2023-06-26T15:05:41;25.26;57.86
79244;SHT31;68672;42.676;23.356;2023-06-26T15:08:06;25.12;57.95
79244;SHT31;68672;42.676;23.356;2023-06-26T15:10:32;24.98;58.09
79244;SHT31;68672;42.676;23.356;2023-06-26T15:13:00;24.83;58.95
79244;SHT31;68672;42.676;23.356;2023-06-26T15:15:25;24.57;59.75
79244;SHT31;68672;42.676;23.356;2023-06-26T15:17:51;24.35;60.16
79244;SHT31;68672;42.676;23.356;2023-06-26T15:20:19;24.13;60.75
79244;SHT31;68672;42.676;23.356;2023-06-26T15:22:44;23.96;61.58
79244;SHT31;68672;42.676;23.356;2023-06-26T15:25:10;23.80;61.87